Arealva, Brazil
Current Conditions -  °F | °C
As of 6:00 PM on Saturday 20 Dec 2014 (Local Time) from SBBU Reporting Station
Few Clouds Few Clouds  
Wind Chill: 90°   Ceiling: Unl
Heat Index: 100°   Visibility: 6mi
Dew Point: 75°   Wind: 5mph
Humidity: 62%   Direction: 10°N
Pressure: 29.77"   Gusts: NA
Location:  22.03°S, 48.91°W
Report Text: SBBU 202000Z 01004KT 9999 FEW035 32/24 Q1008
Loading
Personal Weather Stations






























Interactive Weather Map New forecast layout! Learn more

10-Day Weather Forecast

Advertisements
Track Severe Weather on mobile